createdAt,value
2024-02-27T00:01:42.022Z,15.17
2024-02-27T00:07:04.938Z,12.50
2024-02-27T00:12:27.170Z,15.40
2024-02-27T00:17:49.501Z,17.23
2024-02-27T00:23:13.037Z,16.13
2024-02-27T00:28:34.844Z,15.70
2024-02-27T00:33:57.269Z,15.67
2024-02-27T00:39:19.597Z,16.07
2024-02-27T00:44:45.728Z,16.90
2024-02-27T00:50:09.275Z,15.20
2024-02-27T00:55:31.387Z,16.30
2024-02-27T01:00:53.707Z,15.87
2024-02-27T01:06:16.041Z,18.10
2024-02-27T01:11:38.229Z,13.90
2024-02-27T01:17:01.059Z,13.40
2024-02-27T01:22:34.114Z,16.27
2024-02-27T01:27:56.088Z,11.50
2024-02-27T01:33:18.836Z,21.37
2024-02-27T01:38:40.898Z,13.97
2024-02-27T01:44:03.055Z,15.43
2024-02-27T01:49:27.984Z,16.00
2024-02-27T01:54:52.739Z,15.37
2024-02-27T02:00:15.501Z,15.10
2024-02-27T02:05:37.935Z,15.47
2024-02-27T02:11:02.457Z,19.00
2024-02-27T02:16:25.008Z,15.00
2024-02-27T02:21:51.650Z,16.43
2024-02-27T02:27:17.987Z,15.30
2024-02-27T02:32:49.703Z,16.67
2024-02-27T02:38:12.284Z,20.10
2024-02-27T02:43:34.532Z,13.47
2024-02-27T02:49:02.503Z,15.60
2024-02-27T02:54:24.718Z,21.33
2024-02-27T02:59:47.068Z,15.93
2024-02-27T03:05:13.238Z,17.30
2024-02-27T03:10:35.225Z,13.63
2024-02-27T03:15:57.902Z,15.47
2024-02-27T03:21:20.008Z,16.77
2024-02-27T03:26:43.759Z,13.33
2024-02-27T03:32:06.425Z,19.07
2024-02-27T03:37:28.438Z,15.20
2024-02-27T03:42:50.772Z,18.90
2024-02-27T03:48:13.150Z,16.17
2024-02-27T03:53:35.239Z,15.90
2024-02-27T03:58:57.178Z,15.60
2024-02-27T04:04:19.519Z,16.30
2024-02-27T04:09:42.080Z,14.53
2024-02-27T04:15:04.631Z,17.30
2024-02-27T04:20:26.653Z,15.37
2024-02-27T04:25:48.765Z,16.07
2024-02-27T04:31:11.264Z,16.03
2024-02-27T04:36:33.438Z,19.17
2024-02-27T04:41:55.774Z,17.53
2024-02-27T04:47:18.119Z,17.77
2024-02-27T04:52:40.174Z,16.80
2024-02-27T04:58:02.519Z,17.07
2024-02-27T05:03:25.026Z,18.00
2024-02-27T05:08:49.921Z,20.97
2024-02-27T05:14:11.954Z,15.63
2024-02-27T05:19:34.076Z,20.77
2024-02-27T05:24:56.071Z,19.90
2024-02-27T05:30:18.460Z,24.07
2024-02-27T05:35:40.792Z,17.70
2024-02-27T05:41:02.708Z,19.93
2024-02-27T05:46:25.174Z,21.13
2024-02-27T05:51:48.696Z,27.70
2024-02-27T05:57:12.407Z,24.37
2024-02-27T06:02:34.874Z,23.87
2024-02-27T06:07:57.227Z,20.77
2024-02-27T06:13:19.220Z,21.70
2024-02-27T06:18:43.733Z,20.10
2024-02-27T06:24:06.614Z,22.07
2024-02-27T06:29:28.591Z,17.93
2024-02-27T06:34:50.786Z,23.77
2024-02-27T06:40:13.248Z,31.33
2024-02-27T06:45:36.513Z,30.03
2024-02-27T06:51:07.120Z,22.47
2024-02-27T06:56:29.998Z,22.67
2024-02-27T07:01:51.938Z,31.63
2024-02-27T07:07:14.259Z,34.90
2024-02-27T07:12:36.858Z,29.87
2024-02-27T07:17:59.209Z,32.83
2024-02-27T07:23:21.404Z,34.07
2024-02-27T07:28:45.274Z,32.83
2024-02-27T07:34:07.722Z,36.07
2024-02-27T07:39:30.302Z,39.37
2024-02-27T07:44:52.678Z,43.80
2024-02-27T07:50:17.761Z,40.73
2024-02-27T07:55:42.267Z,41.77
2024-02-27T08:01:04.842Z,41.57
2024-02-27T08:06:28.855Z,41.00
2024-02-27T08:11:51.616Z,38.27
2024-02-27T08:17:13.720Z,48.20
2024-02-27T08:22:36.096Z,48.53
2024-02-27T08:27:58.258Z,43.50
2024-02-27T08:33:20.536Z,53.30
2024-02-27T08:38:46.044Z,46.90
2024-02-27T08:44:08.069Z,40.73
2024-02-27T08:49:30.348Z,54.77
2024-02-27T08:54:52.714Z,51.27
2024-02-27T09:00:17.412Z,41.97
2024-02-27T09:05:39.508Z,50.83
2024-02-27T09:11:02.542Z,43.90
2024-02-27T09:16:24.503Z,47.13
2024-02-27T09:21:46.959Z,46.33
2024-02-27T09:27:09.044Z,49.70
2024-02-27T09:32:31.132Z,39.03
2024-02-27T09:37:56.191Z,43.83
2024-02-27T09:43:23.129Z,39.70
2024-02-27T09:48:47.110Z,46.73
2024-02-27T09:54:12.051Z,50.93
2024-02-27T09:59:34.983Z,38.17
2024-02-27T10:04:57.903Z,37.83
2024-02-27T10:10:20.318Z,34.97
2024-02-27T10:15:42.781Z,32.57
2024-02-27T10:21:05.576Z,35.07
2024-02-27T10:26:27.715Z,30.60
2024-02-27T10:31:52.974Z,33.33
2024-02-27T10:37:22.055Z,36.87
2024-02-27T10:42:44.592Z,35.40
2024-02-27T10:48:06.789Z,35.67
2024-02-27T10:53:30.553Z,32.93
2024-02-27T10:58:54.161Z,29.77
2024-02-27T11:04:22.763Z,33.13
2024-02-27T11:09:47.082Z,32.67
2024-02-27T11:15:11.281Z,27.33
2024-02-27T11:20:33.801Z,28.97
2024-02-27T11:25:57.763Z,29.80
2024-02-27T11:31:22.089Z,24.20
2024-02-27T11:37:07.060Z,31.60
2024-02-27T11:42:42.556Z,29.33
2024-02-27T11:48:05.084Z,29.33
2024-02-27T11:53:32.930Z,25.47
2024-02-27T11:58:55.193Z,27.60
2024-02-27T12:04:17.999Z,26.50
2024-02-27T12:09:41.055Z,30.63
2024-02-27T12:15:03.956Z,27.03
2024-02-27T12:20:26.470Z,22.63
2024-02-27T12:25:48.740Z,25.97
2024-02-27T12:31:10.825Z,22.33
2024-02-27T12:36:32.846Z,26.07
2024-02-27T12:41:55.213Z,20.27
2024-02-27T12:47:17.643Z,23.67
2024-02-27T12:52:41.181Z,23.03
2024-02-27T12:58:04.096Z,22.27
2024-02-27T13:03:27.230Z,22.23
2024-02-27T13:08:49.813Z,24.67
2024-02-27T13:14:12.057Z,24.30
2024-02-27T13:20:00.181Z,25.17
2024-02-27T13:25:23.111Z,23.37
2024-02-27T13:30:45.273Z,24.23
2024-02-27T13:36:08.218Z,32.37
2024-02-27T13:41:30.304Z,25.13
2024-02-27T13:46:52.219Z,27.77
2024-02-27T13:52:14.429Z,27.77
2024-02-27T13:57:36.667Z,26.77
2024-02-27T14:02:59.846Z,26.77
2024-02-27T14:08:23.362Z,28.07
2024-02-27T14:13:45.996Z,24.77
2024-02-27T14:19:09.266Z,28.93
2024-02-27T14:24:31.422Z,27.73
2024-02-27T14:29:53.560Z,29.60
2024-02-27T14:35:15.888Z,29.30
2024-02-27T14:40:38.017Z,33.23
2024-02-27T14:46:00.315Z,29.23
2024-02-27T14:51:29.466Z,33.77
2024-02-27T14:56:52.187Z,27.03
2024-02-27T15:02:14.209Z,37.97
2024-02-27T15:07:37.047Z,31.23
2024-02-27T15:13:00.310Z,29.97
2024-02-27T15:18:23.142Z,33.97
2024-02-27T15:23:45.167Z,34.37
2024-02-27T15:29:07.421Z,33.63
2024-02-27T15:34:29.768Z,31.70
2024-02-27T15:39:52.029Z,32.70
2024-02-27T15:45:14.464Z,30.43
2024-02-27T15:50:36.991Z,30.77
2024-02-27T15:55:59.230Z,30.10
2024-02-27T16:01:21.248Z,28.80
2024-02-27T16:06:55.642Z,33.43
2024-02-27T16:12:22.005Z,36.27
2024-02-27T16:17:47.214Z,34.03
2024-02-27T16:23:09.306Z,37.60
2024-02-27T16:28:31.563Z,38.40
2024-02-27T16:33:54.954Z,35.23
2024-02-27T16:39:17.486Z,35.17
2024-02-27T16:44:39.618Z,31.73
2024-02-27T16:50:02.536Z,33.30
2024-02-27T16:55:24.505Z,32.80
2024-02-27T17:00:46.872Z,26.13
2024-02-27T17:06:09.407Z,23.20
2024-02-27T17:11:31.868Z,26.13
2024-02-27T17:16:54.660Z,25.83
2024-02-27T17:22:16.702Z,25.17
2024-02-27T17:27:39.206Z,29.33
2024-02-27T17:33:02.545Z,26.07
2024-02-27T17:38:24.781Z,22.37
2024-02-27T17:43:46.748Z,23.07
2024-02-27T17:49:10.614Z,23.47
2024-02-27T17:54:33.702Z,19.03
2024-02-27T17:59:55.962Z,21.37
2024-02-27T18:05:19.843Z,24.43
2024-02-27T18:10:43.497Z,28.40
2024-02-27T18:16:57.276Z,18.93
2024-02-27T18:22:20.059Z,22.90
2024-02-27T18:27:42.340Z,24.90
2024-02-27T18:33:08.108Z,22.80
2024-02-27T18:38:30.696Z,24.33
2024-02-27T18:43:52.681Z,25.83
2024-02-27T18:49:15.118Z,22.53
2024-02-27T18:54:37.577Z,20.60
2024-02-27T18:59:59.936Z,26.10
2024-02-27T19:05:28.460Z,22.17
2024-02-27T19:10:50.831Z,24.90
2024-02-27T19:16:14.309Z,29.23
2024-02-27T19:21:36.288Z,24.63
2024-02-27T19:26:58.473Z,24.43
2024-02-27T19:32:20.678Z,28.20
2024-02-27T19:37:43.485Z,29.30
2024-02-27T19:43:05.965Z,27.27
2024-02-27T19:48:27.957Z,26.50
2024-02-27T19:53:51.392Z,29.60
2024-02-27T19:59:13.714Z,30.60
2024-02-27T20:04:36.073Z,32.60
2024-02-27T20:09:58.534Z,29.83
2024-02-27T20:15:21.050Z,33.30
2024-02-27T20:20:43.948Z,24.00
2024-02-27T20:26:06.194Z,32.53
2024-02-27T20:31:28.304Z,28.37
2024-02-27T20:36:50.761Z,34.57
2024-02-27T20:42:14.983Z,33.47
2024-02-27T20:47:37.175Z,29.37
2024-02-27T20:52:59.500Z,35.67
2024-02-27T20:58:22.827Z,32.50
2024-02-27T21:03:44.984Z,32.20
2024-02-27T21:09:08.000Z,30.37
2024-02-27T21:14:32.343Z,27.07
2024-02-27T21:19:54.403Z,30.27
2024-02-27T21:25:16.912Z,32.13
2024-02-27T21:30:39.391Z,31.63
2024-02-27T21:36:02.669Z,28.73
2024-02-27T21:41:24.694Z,23.63
2024-02-27T21:46:46.867Z,29.10
2024-02-27T21:52:08.853Z,25.47
2024-02-27T21:57:30.912Z,23.50
2024-02-27T22:02:53.287Z,22.83
2024-02-27T22:08:15.422Z,24.20
2024-02-27T22:13:38.813Z,26.97
2024-02-27T22:19:01.027Z,26.23
2024-02-27T22:24:23.845Z,26.10
2024-02-27T22:29:46.139Z,30.67
2024-02-27T22:35:08.785Z,23.20
2024-02-27T22:40:30.876Z,26.23
2024-02-27T22:45:53.253Z,25.37
2024-02-27T22:51:15.766Z,24.60
2024-02-27T22:56:38.178Z,26.87
2024-02-27T23:02:00.467Z,24.90
2024-02-27T23:07:26.873Z,23.53
2024-02-27T23:12:50.286Z,24.23
2024-02-27T23:18:12.393Z,22.97
2024-02-27T23:23:34.310Z,24.50
2024-02-27T23:28:56.370Z,24.77
2024-02-27T23:34:18.639Z,23.13
2024-02-27T23:39:40.698Z,19.27
2024-02-27T23:45:03.194Z,18.93
2024-02-27T23:50:25.160Z,21.97
2024-02-27T23:55:48.286Z,24.60
